createdAt,value
2018-12-17T00:07:06.192Z,0.85
2018-12-17T00:09:39.327Z,0.87
2018-12-17T00:12:16.498Z,0.88
2018-12-17T00:15:14.629Z,0.88
2018-12-17T00:17:47.960Z,0.87
2018-12-17T00:20:29.974Z,0.83
2018-12-17T00:26:21.947Z,0.82
2018-12-17T00:29:00.602Z,0.83
2018-12-17T00:31:34.159Z,0.87
2018-12-17T00:34:07.523Z,0.92
2018-12-17T00:36:50.515Z,0.93
2018-12-17T00:48:34.225Z,0.93
2018-12-17T00:51:07.174Z,0.93
2018-12-17T00:53:57.803Z,0.98
2018-12-17T00:56:32.447Z,0.95
2018-12-17T01:02:19.238Z,0.93
2018-12-17T01:05:03.210Z,0.95
2018-12-17T01:45:10.597Z,1.19
2018-12-17T04:26:15.933Z,1.42
2018-12-17T04:28:46.904Z,1.50
2018-12-17T04:31:22.343Z,1.45
2018-12-17T04:33:55.331Z,1.42
2018-12-17T04:36:36.063Z,1.41
2018-12-17T04:39:10.186Z,1.45
2018-12-17T04:41:55.647Z,1.52
2018-12-17T04:44:27.209Z,1.57
2018-12-17T04:47:02.574Z,1.58
2018-12-17T04:49:38.402Z,1.58
2018-12-17T04:52:16.398Z,1.58
2018-12-17T04:54:53.138Z,1.56
2018-12-17T04:57:28.997Z,1.58
2018-12-17T05:00:14.406Z,1.52
2018-12-17T05:09:00.933Z,1.40
2018-12-17T05:11:34.073Z,1.43
2018-12-17T05:20:43.335Z,1.35
2018-12-17T05:23:14.353Z,1.37
2018-12-17T05:25:45.135Z,1.41
2018-12-17T05:28:15.019Z,1.44
2018-12-17T05:30:44.930Z,1.50
2018-12-17T05:36:08.437Z,1.44
2018-12-17T05:38:39.028Z,1.44
2018-12-17T05:41:09.496Z,1.45
2018-12-17T05:43:40.080Z,1.40
2018-12-17T05:46:09.831Z,1.42
2018-12-17T05:48:39.297Z,1.38
2018-12-17T05:51:08.965Z,1.37
2018-12-17T05:53:38.640Z,1.41
2018-12-17T05:56:08.289Z,1.43
2018-12-17T05:58:38.036Z,1.44
2018-12-17T06:01:07.382Z,1.41
2018-12-17T06:03:37.154Z,1.45
2018-12-17T06:06:06.921Z,1.46
2018-12-17T06:08:36.625Z,1.48
2018-12-17T06:11:05.991Z,1.49
2018-12-17T06:13:35.764Z,1.53
2018-12-17T06:16:05.701Z,1.50
2018-12-17T06:18:41.852Z,1.53
2018-12-17T06:21:31.927Z,1.51
2018-12-17T06:24:01.604Z,1.51
2018-12-17T06:26:31.379Z,1.54
2018-12-17T06:44:25.540Z,1.41
2018-12-17T06:46:58.811Z,1.45
2018-12-17T06:49:32.164Z,1.54
2018-12-17T06:52:19.770Z,1.55
2018-12-17T07:13:07.772Z,1.60
2018-12-17T07:15:37.460Z,1.58
2018-12-17T07:18:06.833Z,1.59
2018-12-17T07:20:36.507Z,1.66
2018-12-17T07:23:16.145Z,1.69
2018-12-17T07:25:57.629Z,1.68
2018-12-17T07:28:27.057Z,1.65
2018-12-17T07:34:23.439Z,1.81
2018-12-17T07:37:08.920Z,1.83
2018-12-17T07:39:42.106Z,1.89
2018-12-17T07:42:25.937Z,1.91
2018-12-17T07:44:58.676Z,1.89
2018-12-17T07:47:53.252Z,1.93
2018-12-17T07:50:24.341Z,1.97
2018-12-17T07:53:08.780Z,1.94
2018-12-17T07:55:38.248Z,2.08
2018-12-17T07:58:07.980Z,2.02
2018-12-17T08:00:37.822Z,2.02
2018-12-17T08:03:07.204Z,2.11
2018-12-17T08:05:36.864Z,2.07
2018-12-17T08:08:06.282Z,2.13
2018-12-17T08:10:35.978Z,2.12
2018-12-17T08:13:05.613Z,2.12
2018-12-17T08:15:35.123Z,2.21
2018-12-17T08:18:15.707Z,2.28
2018-12-17T08:20:45.062Z,2.26
2018-12-17T08:23:14.913Z,2.34
2018-12-17T08:25:44.612Z,2.58
2018-12-17T08:28:14.068Z,2.55
2018-12-17T08:30:43.443Z,2.71
2018-12-17T08:33:12.775Z,2.75
2018-12-17T08:35:42.486Z,2.77
2018-12-17T08:38:11.946Z,2.68
2018-12-17T08:40:41.323Z,2.88
2018-12-17T08:43:10.976Z,3.11
2018-12-17T08:45:40.673Z,3.15
2018-12-17T08:48:10.036Z,3.28
2018-12-17T08:50:40.289Z,3.24
2018-12-17T08:53:10.016Z,3.19
2018-12-17T08:55:39.668Z,3.38
2018-12-17T08:58:09.284Z,3.20
2018-12-17T09:00:38.711Z,3.07
2018-12-17T09:03:08.492Z,3.19
2018-12-17T09:05:38.221Z,3.33
2018-12-17T09:08:08.028Z,3.26
2018-12-17T09:10:37.415Z,3.32
2018-12-17T09:13:07.105Z,3.43
2018-12-17T09:15:36.864Z,3.55
2018-12-17T09:18:07.288Z,3.63
2018-12-17T09:20:36.840Z,3.57
2018-12-17T09:23:06.883Z,3.61
2018-12-17T09:25:36.632Z,3.85
2018-12-17T09:28:05.955Z,3.93
2018-12-17T09:30:41.107Z,4.10
2018-12-17T09:33:07.052Z,4.15
2018-12-17T09:35:36.419Z,4.27
2018-12-17T09:38:06.147Z,4.45
2018-12-17T09:40:41.401Z,4.49
2018-12-17T09:46:04.233Z,4.48
2018-12-17T09:48:33.687Z,4.53
2018-12-17T09:51:05.088Z,4.45
2018-12-17T09:53:35.029Z,4.60
2018-12-17T09:56:04.838Z,4.69
2018-12-17T09:58:34.508Z,4.65
2018-12-17T10:01:04.388Z,4.40
2018-12-17T10:03:33.757Z,4.41
2018-12-17T10:06:03.548Z,4.38
2018-12-17T10:11:16.709Z,4.69
2018-12-17T10:13:46.611Z,4.59
2018-12-17T10:16:16.399Z,4.90
2018-12-17T10:19:15.062Z,5.11
2018-12-17T10:21:45.048Z,4.78
2018-12-17T10:27:39.987Z,4.81
2018-12-17T10:30:09.939Z,4.57
2018-12-17T10:32:46.076Z,5.07
2018-12-17T10:35:30.090Z,5.30
2018-12-17T10:41:11.023Z,5.28
2018-12-17T10:43:46.471Z,5.16
2018-12-17T10:46:33.474Z,5.09
2018-12-17T10:49:03.703Z,5.50
2018-12-17T10:54:40.224Z,5.38
2018-12-17T10:57:23.167Z,5.44
2018-12-17T11:00:16.015Z,5.41
2018-12-17T11:02:46.039Z,5.49
2018-12-17T11:05:17.309Z,5.54
2018-12-17T11:07:47.003Z,5.62
2018-12-17T11:10:16.889Z,5.53
2018-12-17T11:12:46.995Z,5.68
2018-12-17T11:15:20.274Z,5.88
2018-12-17T11:21:02.235Z,6.25
2018-12-17T11:26:50.879Z,6.29
2018-12-17T11:29:44.913Z,6.24
2018-12-17T11:32:27.378Z,6.13
2018-12-17T11:37:58.018Z,5.87
2018-12-17T11:40:27.838Z,6.11
2018-12-17T11:42:57.887Z,6.19
2018-12-17T11:45:31.041Z,6.20
2018-12-17T11:48:22.242Z,6.26
2018-12-17T11:51:18.269Z,5.98
2018-12-17T11:53:51.216Z,5.96
2018-12-17T11:56:32.653Z,5.93
2018-12-17T11:59:16.237Z,5.61
2018-12-17T12:01:46.153Z,6.00
2018-12-17T12:04:21.234Z,5.87
2018-12-17T12:06:55.075Z,5.70
2018-12-17T12:12:30.821Z,6.10
2018-12-17T12:15:00.186Z,6.13
2018-12-17T12:17:29.694Z,6.28
2018-12-17T12:19:59.370Z,6.44
2018-12-17T12:22:29.122Z,6.32
2018-12-17T12:24:58.854Z,6.40
2018-12-17T12:27:28.906Z,6.47
2018-12-17T12:29:58.970Z,6.53
2018-12-17T12:32:28.782Z,6.45
2018-12-17T12:34:58.484Z,6.34
2018-12-17T12:37:28.032Z,6.30
2018-12-17T12:39:57.699Z,6.37
2018-12-17T12:42:27.072Z,6.28
2018-12-17T12:44:56.725Z,6.27
2018-12-17T12:47:26.442Z,6.33
2018-12-17T12:49:56.148Z,6.35
2018-12-17T12:52:25.828Z,6.03
2018-12-17T12:54:55.498Z,5.99
2018-12-17T12:57:25.286Z,5.87
2018-12-17T12:59:54.982Z,5.82
2018-12-17T13:02:24.642Z,5.68
2018-12-17T13:05:16.064Z,5.52
2018-12-17T13:07:46.830Z,5.51
2018-12-17T13:10:25.006Z,5.52
2018-12-17T13:12:54.685Z,5.59
2018-12-17T13:15:24.102Z,5.74
2018-12-17T13:17:54.576Z,5.87
2018-12-17T13:20:25.614Z,5.89
2018-12-17T13:22:56.456Z,5.87
2018-12-17T13:25:30.956Z,5.78
2018-12-17T13:28:01.894Z,5.74
2018-12-17T13:30:31.828Z,5.70
2018-12-17T13:33:09.092Z,5.46
2018-12-17T13:35:55.491Z,5.48
2018-12-17T13:38:24.858Z,5.36
2018-12-17T13:40:54.605Z,5.35
2018-12-17T13:43:25.232Z,5.35
2018-12-17T13:45:55.545Z,5.30
2018-12-17T13:48:29.934Z,5.41
2018-12-17T13:51:10.868Z,5.45
2018-12-17T13:53:58.560Z,5.34
2018-12-17T13:56:45.962Z,5.24
2018-12-17T13:59:15.342Z,5.27
2018-12-17T14:02:13.245Z,5.20
2018-12-17T14:10:50.974Z,5.10
2018-12-17T14:13:20.730Z,5.09
2018-12-17T14:16:07.998Z,5.00
2018-12-17T14:18:57.398Z,4.93
2018-12-17T14:21:44.208Z,4.87
2018-12-17T14:24:17.919Z,4.89
2018-12-17T14:29:54.082Z,4.87
2018-12-17T14:32:28.887Z,4.84
2018-12-17T14:35:08.745Z,4.75
2018-12-17T14:41:07.238Z,4.76
2018-12-17T14:43:38.572Z,4.71
2018-12-17T14:46:19.871Z,4.74
2018-12-17T14:48:49.607Z,4.70
2018-12-17T14:51:26.952Z,4.66
2018-12-17T14:53:56.758Z,4.61
2018-12-17T14:56:26.298Z,4.57
2018-12-17T14:58:55.626Z,4.54
2018-12-17T15:01:25.369Z,4.49
2018-12-17T15:03:55.195Z,4.44
2018-12-17T15:06:24.535Z,4.43
2018-12-17T15:08:54.698Z,4.43
2018-12-17T15:11:24.404Z,4.41
2018-12-17T15:13:54.239Z,4.44
2018-12-17T15:16:24.659Z,4.53
2018-12-17T15:18:54.078Z,4.53
2018-12-17T15:21:24.727Z,4.56
2018-12-17T15:23:54.494Z,4.58
2018-12-17T15:26:24.138Z,4.55
2018-12-17T15:28:54.614Z,4.57
2018-12-17T15:31:24.389Z,4.54
2018-12-17T15:33:54.082Z,4.53
2018-12-17T15:36:23.818Z,4.56
2018-12-17T15:38:54.162Z,4.58
2018-12-17T15:41:26.006Z,4.59
2018-12-17T15:43:55.742Z,4.60
2018-12-17T15:46:25.614Z,4.55
2018-12-17T15:48:55.307Z,4.54
2018-12-17T15:51:28.786Z,4.57
2018-12-17T15:54:04.662Z,4.57
2018-12-17T15:56:37.302Z,4.57
2018-12-17T15:59:13.540Z,4.58
2018-12-17T16:05:08.693Z,4.62
2018-12-17T16:10:39.201Z,4.60
2018-12-17T16:13:14.801Z,4.62
2018-12-17T16:15:56.886Z,4.55
2018-12-17T16:18:42.067Z,4.47
2018-12-17T16:21:31.873Z,4.53
2018-12-17T16:30:22.271Z,4.47
2018-12-17T16:32:52.161Z,4.41
2018-12-17T16:35:21.974Z,4.36
2018-12-17T16:38:05.151Z,4.32
2018-12-17T16:40:37.062Z,4.29
2018-12-17T16:43:30.997Z,4.24
2018-12-17T16:52:15.645Z,4.34
2018-12-17T16:54:59.089Z,4.37
2018-12-17T16:57:30.208Z,4.38
2018-12-17T17:00:11.700Z,4.44
2018-12-17T17:02:48.472Z,4.46
2018-12-17T17:05:24.594Z,4.41
2018-12-17T17:57:05.470Z,3.94
2018-12-17T18:02:51.633Z,3.80
2018-12-17T18:05:43.569Z,3.77
2018-12-17T18:20:40.555Z,3.77
2018-12-17T18:29:21.497Z,3.92
2018-12-17T18:44:11.699Z,3.98
2018-12-17T18:46:47.668Z,3.97
2018-12-17T18:49:36.920Z,4.01
2018-12-17T19:01:04.853Z,4.14
2018-12-17T19:03:40.183Z,4.10
2018-12-17T19:06:24.091Z,4.11
2018-12-17T19:09:03.952Z,4.05
2018-12-17T19:14:45.107Z,4.14
2018-12-17T19:17:21.374Z,4.12
2018-12-17T19:19:52.401Z,4.13
2018-12-17T19:25:33.993Z,4.15
2018-12-17T19:31:19.841Z,4.20
2018-12-17T19:37:02.610Z,4.20
2018-12-17T19:40:01.212Z,4.33
2018-12-17T19:48:39.682Z,4.37
2018-12-17T19:51:09.493Z,4.41
2018-12-17T19:56:49.981Z,4.35
2018-12-17T19:59:36.260Z,4.28
2018-12-17T20:02:23.080Z,4.14
2018-12-17T20:04:53.424Z,4.09
2018-12-17T20:07:27.072Z,4.04
2018-12-17T20:10:01.348Z,4.07
2018-12-17T20:12:34.372Z,4.10
2018-12-17T20:15:06.749Z,4.05
2018-12-17T20:17:50.223Z,3.80
2018-12-17T20:20:23.109Z,3.67
2018-12-17T20:22:53.772Z,3.73
2018-12-17T20:25:23.875Z,3.86
2018-12-17T20:28:07.288Z,3.94
2018-12-17T20:30:49.966Z,3.95
2018-12-17T20:33:26.738Z,4.03
2018-12-17T20:36:01.596Z,4.11
2018-12-17T20:41:50.018Z,4.16
2018-12-17T20:44:34.554Z,4.27
2018-12-17T20:47:19.706Z,4.24
2018-12-17T21:36:01.219Z,4.27
2018-12-17T21:38:44.814Z,4.35
2018-12-17T21:41:26.947Z,4.34
2018-12-17T21:44:03.573Z,4.38
2018-12-17T21:49:51.342Z,4.30
2018-12-17T21:52:25.551Z,4.26
2018-12-17T21:54:59.571Z,4.21
2018-12-17T21:57:36.375Z,4.30
2018-12-17T22:09:41.731Z,4.41
2018-12-17T22:22:19.074Z,4.50
2018-12-17T22:25:00.274Z,4.40
2018-12-17T22:27:31.734Z,4.32
2018-12-17T22:30:14.720Z,4.33
2018-12-17T22:32:56.722Z,4.35
2018-12-17T22:35:31.924Z,4.43
2018-12-17T22:38:05.473Z,4.54
2018-12-17T22:40:53.245Z,4.48
2018-12-17T22:43:28.677Z,4.44
2018-12-17T22:46:04.471Z,4.42
2018-12-17T22:48:39.512Z,4.39
2018-12-17T22:51:16.427Z,4.31
2018-12-17T22:54:04.612Z,4.33
2018-12-17T22:56:37.008Z,4.33
2018-12-17T22:59:11.908Z,4.40
2018-12-17T23:01:46.917Z,4.44
2018-12-17T23:04:27.902Z,4.45
2018-12-17T23:07:01.119Z,4.39
2018-12-17T23:09:51.131Z,4.35
2018-12-17T23:12:42.801Z,4.42
2018-12-17T23:15:27.047Z,3.92
2018-12-17T23:17:59.823Z,4.58
2018-12-17T23:20:42.334Z,4.53
2018-12-17T23:23:16.011Z,4.51
2018-12-17T23:26:03.969Z,4.57
2018-12-17T23:31:57.433Z,4.48
2018-12-17T23:34:36.308Z,4.51
2018-12-17T23:37:25.137Z,4.63
2018-12-17T23:40:10.358Z,4.61
2018-12-17T23:42:43.459Z,4.64
2018-12-17T23:48:08.712Z,4.69
2018-12-17T23:50:47.747Z,4.69
2018-12-17T23:53:19.570Z,4.70
2018-12-17T23:56:07.126Z,4.70
2018-12-17T23:58:40.503Z,4.74
